sensor_id;sensor_type;location;lat;lon;timestamp;pressure;altitude;pressure_sealevel;temperature;humidity
4767;BME280;2397;53.576;9.746;2023-02-27T00:00:21;102835.66;;;-2.60;100.00
4767;BME280;2397;53.576;9.746;2023-02-27T00:02:49;102841.16;;;-2.56;100.00
4767;BME280;2397;53.576;9.746;2023-02-27T00:05:17;102839.66;;;-2.62;100.00
4767;BME280;2397;53.576;9.746;2023-02-27T00:07:44;102840.41;;;-2.63;100.00
4767;BME280;2397;53.576;9.746;2023-02-27T00:10:11;102845.47;;;-2.63;100.00
4767;BME280;2397;53.576;9.746;2023-02-27T00:12:38;102837.22;;;-2.70;100.00
4767;BME280;2397;53.576;9.746;2023-02-27T00:15:11;102841.84;;;-2.74;100.00
4767;BME280;2397;53.576;9.746;2023-02-27T00:17:38;102840.66;;;-2.78;100.00
4767;BME280;2397;53.576;9.746;2023-02-27T00:20:07;102842.25;;;-2.78;100.00
4767;BME280;2397;53.576;9.746;2023-02-27T00:22:37;102838.41;;;-2.75;100.00
4767;BME280;2397;53.576;9.746;2023-02-27T00:25:04;102842.75;;;-2.74;100.00
4767;BME280;2397;53.576;9.746;2023-02-27T00:27:30;102844.81;;;-2.78;100.00
4767;BME280;2397;53.576;9.746;2023-02-27T00:29:58;102842.91;;;-2.72;100.00
4767;BME280;2397;53.576;9.746;2023-02-27T00:32:24;102853.47;;;-2.76;100.00
4767;BME280;2397;53.576;9.746;2023-02-27T00:34:51;102851.97;;;-2.74;100.00
4767;BME280;2397;53.576;9.746;2023-02-27T00:37:17;102850.22;;;-2.75;100.00
4767;BME280;2397;53.576;9.746;2023-02-27T00:39:44;102854.06;;;-2.79;100.00
4767;BME280;2397;53.576;9.746;2023-02-27T00:42:10;102846.19;;;-2.73;100.00
4767;BME280;2397;53.576;9.746;2023-02-27T00:44:36;102845.00;;;-2.68;100.00
4767;BME280;2397;53.576;9.746;2023-02-27T00:47:03;102848.09;;;-2.79;100.00
4767;BME280;2397;53.576;9.746;2023-02-27T00:49:30;102844.03;;;-2.86;100.00
4767;BME280;2397;53.576;9.746;2023-02-27T00:51:56;102847.75;;;-2.91;100.00
4767;BME280;2397;53.576;9.746;2023-02-27T00:54:22;102849.97;;;-2.94;100.00
4767;BME280;2397;53.576;9.746;2023-02-27T00:56:49;102847.72;;;-3.00;100.00
4767;BME280;2397;53.576;9.746;2023-02-27T00:59:15;102847.28;;;-2.96;100.00
4767;BME280;2397;53.576;9.746;2023-02-27T01:01:42;102853.25;;;-2.95;100.00
4767;BME280;2397;53.576;9.746;2023-02-27T01:04:10;102849.81;;;-2.96;100.00
4767;BME280;2397;53.576;9.746;2023-02-27T01:06:36;102850.97;;;-3.01;100.00
4767;BME280;2397;53.576;9.746;2023-02-27T01:09:03;102853.91;;;-3.05;100.00
4767;BME280;2397;53.576;9.746;2023-02-27T01:11:30;102850.75;;;-3.11;100.00
4767;BME280;2397;53.576;9.746;2023-02-27T01:13:56;102848.53;;;-3.08;100.00
4767;BME280;2397;53.576;9.746;2023-02-27T01:16:23;102839.47;;;-3.06;100.00
4767;BME280;2397;53.576;9.746;2023-02-27T01:18:49;102847.50;;;-3.10;100.00
4767;BME280;2397;53.576;9.746;2023-02-27T01:21:16;102840.47;;;-3.13;100.00
4767;BME280;2397;53.576;9.746;2023-02-27T01:23:42;102839.28;;;-3.16;100.00
4767;BME280;2397;53.576;9.746;2023-02-27T01:26:08;102842.38;;;-3.19;100.00
4767;BME280;2397;53.576;9.746;2023-02-27T01:28:35;102842.22;;;-3.21;100.00
4767;BME280;2397;53.576;9.746;2023-02-27T01:31:01;102838.91;;;-3.28;100.00
4767;BME280;2397;53.576;9.746;2023-02-27T01:33:28;102835.66;;;-3.19;100.00
4767;BME280;2397;53.576;9.746;2023-02-27T01:35:54;102837.75;;;-3.23;100.00
4767;BME280;2397;53.576;9.746;2023-02-27T01:38:20;102830.44;;;-3.20;100.00
4767;BME280;2397;53.576;9.746;2023-02-27T01:40:47;102834.63;;;-3.21;100.00
4767;BME280;2397;53.576;9.746;2023-02-27T01:43:16;102835.78;;;-3.26;100.00
4767;BME280;2397;53.576;9.746;2023-02-27T01:45:44;102838.75;;;-3.30;100.00
4767;BME280;2397;53.576;9.746;2023-02-27T01:48:18;102835.00;;;-3.33;100.00
4767;BME280;2397;53.576;9.746;2023-02-27T01:50:53;102833.78;;;-3.37;100.00
4767;BME280;2397;53.576;9.746;2023-02-27T01:53:21;102834.38;;;-3.40;100.00
4767;BME280;2397;53.576;9.746;2023-02-27T01:55:58;102829.31;;;-3.40;100.00
4767;BME280;2397;53.576;9.746;2023-02-27T01:58:26;102833.03;;;-3.36;100.00
4767;BME280;2397;53.576;9.746;2023-02-27T02:00:53;102838.59;;;-3.31;100.00
4767;BME280;2397;53.576;9.746;2023-02-27T02:06:12;102845.06;;;-3.42;100.00
4767;BME280;2397;53.576;9.746;2023-02-27T02:08:41;102839.44;;;-3.40;100.00
4767;BME280;2397;53.576;9.746;2023-02-27T02:11:09;102844.72;;;-3.29;100.00
4767;BME280;2397;53.576;9.746;2023-02-27T02:13:39;102837.69;;;-3.32;100.00
4767;BME280;2397;53.576;9.746;2023-02-27T02:16:21;102839.59;;;-3.38;100.00
4767;BME280;2397;53.576;9.746;2023-02-27T02:19:29;102843.38;;;-3.26;100.00
4767;BME280;2397;53.576;9.746;2023-02-27T02:31:08;102857.72;;;-3.42;100.00
4767;BME280;2397;53.576;9.746;2023-02-27T02:34:04;102854.81;;;-3.54;100.00
4767;BME280;2397;53.576;9.746;2023-02-27T02:39:50;102853.44;;;-3.59;100.00
4767;BME280;2397;53.576;9.746;2023-02-27T02:42:24;102861.22;;;-3.58;100.00
4767;BME280;2397;53.576;9.746;2023-02-27T02:44:54;102864.06;;;-3.55;100.00
4767;BME280;2397;53.576;9.746;2023-02-27T02:52:55;102858.03;;;-3.64;100.00
4767;BME280;2397;53.576;9.746;2023-02-27T02:55:34;102855.81;;;-3.61;100.00
4767;BME280;2397;53.576;9.746;2023-02-27T02:58:07;102848.13;;;-3.54;100.00
4767;BME280;2397;53.576;9.746;2023-02-27T03:00:44;102853.19;;;-3.54;100.00
4767;BME280;2397;53.576;9.746;2023-02-27T03:03:21;102845.94;;;-3.66;100.00
4767;BME280;2397;53.576;9.746;2023-02-27T03:05:56;102853.16;;;-3.78;100.00
4767;BME280;2397;53.576;9.746;2023-02-27T03:08:28;102850.78;;;-3.77;100.00
4767;BME280;2397;53.576;9.746;2023-02-27T03:10:59;102842.53;;;-3.67;100.00
4767;BME280;2397;53.576;9.746;2023-02-27T03:13:33;102842.22;;;-3.70;100.00
4767;BME280;2397;53.576;9.746;2023-02-27T03:16:27;102854.88;;;-3.70;100.00
4767;BME280;2397;53.576;9.746;2023-02-27T03:19:12;102849.53;;;-3.64;100.00
4767;BME280;2397;53.576;9.746;2023-02-27T03:21:52;102851.81;;;-3.59;100.00
4767;BME280;2397;53.576;9.746;2023-02-27T03:24:43;102856.22;;;-3.65;100.00
4767;BME280;2397;53.576;9.746;2023-02-27T03:27:12;102857.97;;;-3.73;100.00
4767;BME280;2397;53.576;9.746;2023-02-27T03:30:02;102866.53;;;-3.79;100.00
4767;BME280;2397;53.576;9.746;2023-02-27T03:32:39;102860.66;;;-3.71;100.00
4767;BME280;2397;53.576;9.746;2023-02-27T03:35:08;102857.03;;;-3.73;100.00
4767;BME280;2397;53.576;9.746;2023-02-27T03:37:57;102859.09;;;-3.78;100.00
4767;BME280;2397;53.576;9.746;2023-02-27T03:40:34;102862.63;;;-3.84;100.00
4767;BME280;2397;53.576;9.746;2023-02-27T03:43:26;102867.84;;;-3.67;100.00
4767;BME280;2397;53.576;9.746;2023-02-27T03:46:01;102862.88;;;-3.74;100.00
4767;BME280;2397;53.576;9.746;2023-02-27T03:48:31;102871.91;;;-3.76;100.00
4767;BME280;2397;53.576;9.746;2023-02-27T03:50:57;102869.13;;;-3.71;100.00
4767;BME280;2397;53.576;9.746;2023-02-27T03:53:32;102868.66;;;-3.75;100.00
4767;BME280;2397;53.576;9.746;2023-02-27T03:56:02;102876.81;;;-3.78;100.00
4767;BME280;2397;53.576;9.746;2023-02-27T03:58:30;102874.94;;;-3.72;100.00
4767;BME280;2397;53.576;9.746;2023-02-27T04:00:56;102872.69;;;-3.77;100.00
4767;BME280;2397;53.576;9.746;2023-02-27T04:03:23;102882.56;;;-3.88;100.00
4767;BME280;2397;53.576;9.746;2023-02-27T04:05:49;102883.13;;;-3.90;100.00
4767;BME280;2397;53.576;9.746;2023-02-27T04:13:49;102890.56;;;-3.92;100.00
4767;BME280;2397;53.576;9.746;2023-02-27T04:19:28;102891.44;;;-3.91;100.00
4767;BME280;2397;53.576;9.746;2023-02-27T04:22:51;102901.47;;;-4.00;100.00
4767;BME280;2397;53.576;9.746;2023-02-27T04:28:24;102920.66;;;-3.86;100.00
4767;BME280;2397;53.576;9.746;2023-02-27T04:31:18;102913.72;;;-3.96;100.00
4767;BME280;2397;53.576;9.746;2023-02-27T04:33:56;102921.72;;;-3.84;100.00
4767;BME280;2397;53.576;9.746;2023-02-27T04:36:40;102923.63;;;-3.74;100.00
4767;BME280;2397;53.576;9.746;2023-02-27T04:39:25;102931.69;;;-3.85;100.00
4767;BME280;2397;53.576;9.746;2023-02-27T04:41:56;102931.69;;;-3.85;100.00
4767;BME280;2397;53.576;9.746;2023-02-27T04:44:27;102931.75;;;-3.93;100.00
4767;BME280;2397;53.576;9.746;2023-02-27T04:46:55;102929.81;;;-3.95;100.00
4767;BME280;2397;53.576;9.746;2023-02-27T04:49:30;102923.28;;;-3.93;100.00
4767;BME280;2397;53.576;9.746;2023-02-27T04:52:06;102925.66;;;-3.95;100.00
4767;BME280;2397;53.576;9.746;2023-02-27T04:55:02;102931.59;;;-3.94;100.00
4767;BME280;2397;53.576;9.746;2023-02-27T04:57:34;102934.06;;;-3.87;100.00
4767;BME280;2397;53.576;9.746;2023-02-27T05:00:05;102930.47;;;-3.89;100.00
4767;BME280;2397;53.576;9.746;2023-02-27T05:02:37;102934.06;;;-3.87;100.00
4767;BME280;2397;53.576;9.746;2023-02-27T05:05:08;102934.69;;;-3.81;100.00
4767;BME280;2397;53.576;9.746;2023-02-27T05:07:43;102932.94;;;-3.82;100.00
4767;BME280;2397;53.576;9.746;2023-02-27T05:10:20;102933.88;;;-3.89;100.00
4767;BME280;2397;53.576;9.746;2023-02-27T05:13:01;102931.25;;;-3.97;100.00
4767;BME280;2397;53.576;9.746;2023-02-27T05:15:31;102933.16;;;-4.03;100.00
4767;BME280;2397;53.576;9.746;2023-02-27T05:18:05;102933.53;;;-4.08;100.00
4767;BME280;2397;53.576;9.746;2023-02-27T05:23:41;102938.59;;;-4.08;100.00
4767;BME280;2397;53.576;9.746;2023-02-27T05:29:23;102950.91;;;-4.11;100.00
4767;BME280;2397;53.576;9.746;2023-02-27T05:34:51;102944.97;;;-4.11;100.00
4767;BME280;2397;53.576;9.746;2023-02-27T05:37:45;102948.38;;;-4.11;100.00
4767;BME280;2397;53.576;9.746;2023-02-27T05:40:17;102952.56;;;-4.11;100.00
4767;BME280;2397;53.576;9.746;2023-02-27T05:42:51;102942.66;;;-4.17;100.00
4767;BME280;2397;53.576;9.746;2023-02-27T05:45:24;102949.22;;;-4.19;100.00
4767;BME280;2397;53.576;9.746;2023-02-27T05:47:57;102950.16;;;-4.26;100.00
4767;BME280;2397;53.576;9.746;2023-02-27T05:50:28;102945.81;;;-4.27;100.00
4767;BME280;2397;53.576;9.746;2023-02-27T05:52:58;102950.50;;;-4.22;100.00
4767;BME280;2397;53.576;9.746;2023-02-27T05:55:41;102944.47;;;-4.16;100.00
4767;BME280;2397;53.576;9.746;2023-02-27T05:58:21;102944.72;;;-4.21;100.00
4767;BME280;2397;53.576;9.746;2023-02-27T06:00:56;102947.06;;;-4.23;100.00
4767;BME280;2397;53.576;9.746;2023-02-27T06:03:25;102947.56;;;-4.18;100.00
4767;BME280;2397;53.576;9.746;2023-02-27T06:05:52;102947.91;;;-4.15;100.00
4767;BME280;2397;53.576;9.746;2023-02-27T06:08:20;102950.09;;;-4.18;100.00
4767;BME280;2397;53.576;9.746;2023-02-27T06:10:47;102956.03;;;-4.18;100.00
4767;BME280;2397;53.576;9.746;2023-02-27T06:13:16;102956.59;;;-4.20;100.00
4767;BME280;2397;53.576;9.746;2023-02-27T06:15:43;102952.94;;;-4.15;100.00
4767;BME280;2397;53.576;9.746;2023-02-27T06:18:11;102950.81;;;-4.19;100.00
4767;BME280;2397;53.576;9.746;2023-02-27T06:20:38;102958.63;;;-4.25;100.00
4767;BME280;2397;53.576;9.746;2023-02-27T06:23:05;102956.09;;;-4.25;100.00
4767;BME280;2397;53.576;9.746;2023-02-27T06:25:32;102965.75;;;-4.14;100.00
4767;BME280;2397;53.576;9.746;2023-02-27T06:27:58;102979.56;;;-4.19;100.00
4767;BME280;2397;53.576;9.746;2023-02-27T06:30:25;102980.94;;;-4.14;100.00
4767;BME280;2397;53.576;9.746;2023-02-27T06:32:51;102981.09;;;-4.12;100.00
4767;BME280;2397;53.576;9.746;2023-02-27T06:35:18;102985.84;;;-4.15;100.00
4767;BME280;2397;53.576;9.746;2023-02-27T06:37:44;102981.50;;;-4.16;100.00
4767;BME280;2397;53.576;9.746;2023-02-27T06:40:11;102980.63;;;-4.17;100.00
4767;BME280;2397;53.576;9.746;2023-02-27T06:42:43;102989.31;;;-4.22;100.00
4767;BME280;2397;53.576;9.746;2023-02-27T06:45:11;102991.06;;;-4.14;100.00
4767;BME280;2397;53.576;9.746;2023-02-27T06:47:38;102981.09;;;-4.12;100.00
4767;BME280;2397;53.576;9.746;2023-02-27T06:50:08;102980.00;;;-4.07;100.00
4767;BME280;2397;53.576;9.746;2023-02-27T06:52:37;102991.22;;;-4.12;100.00
4767;BME280;2397;53.576;9.746;2023-02-27T06:55:05;102993.31;;;-4.01;100.00
4767;BME280;2397;53.576;9.746;2023-02-27T06:57:32;102997.88;;;-3.90;100.00
4767;BME280;2397;53.576;9.746;2023-02-27T06:59:58;102995.00;;;-3.93;100.00
4767;BME280;2397;53.576;9.746;2023-02-27T07:02:25;102989.63;;;-3.96;100.00
4767;BME280;2397;53.576;9.746;2023-02-27T07:04:51;102995.94;;;-3.92;100.00
4767;BME280;2397;53.576;9.746;2023-02-27T07:07:18;102990.72;;;-3.94;100.00
4767;BME280;2397;53.576;9.746;2023-02-27T07:10:02;102992.09;;;-3.89;100.00
4767;BME280;2397;53.576;9.746;2023-02-27T07:12:28;103000.81;;;-3.78;100.00
4767;BME280;2397;53.576;9.746;2023-02-27T07:14:55;103003.28;;;-3.71;100.00
4767;BME280;2397;53.576;9.746;2023-02-27T07:17:21;103002.88;;;-3.66;100.00
4767;BME280;2397;53.576;9.746;2023-02-27T07:19:47;103004.94;;;-3.71;100.00
4767;BME280;2397;53.576;9.746;2023-02-27T07:22:14;103007.78;;;-3.68;100.00
4767;BME280;2397;53.576;9.746;2023-02-27T07:24:40;103008.34;;;-3.71;100.00
4767;BME280;2397;53.576;9.746;2023-02-27T07:27:07;103016.44;;;-3.66;100.00
4767;BME280;2397;53.576;9.746;2023-02-27T07:29:33;103031.84;;;-3.72;100.00
4767;BME280;2397;53.576;9.746;2023-02-27T07:32:01;103030.28;;;-3.55;100.00
4767;BME280;2397;53.576;9.746;2023-02-27T07:34:28;103025.44;;;-3.45;100.00
4767;BME280;2397;53.576;9.746;2023-02-27T07:36:54;103026.81;;;-3.40;100.00
4767;BME280;2397;53.576;9.746;2023-02-27T07:39:20;103029.03;;;-3.43;100.00
4767;BME280;2397;53.576;9.746;2023-02-27T07:41:47;103030.75;;;-3.34;100.00
4767;BME280;2397;53.576;9.746;2023-02-27T07:44:13;103035.56;;;-3.29;100.00
4767;BME280;2397;53.576;9.746;2023-02-27T07:46:40;103031.56;;;-3.27;100.00
4767;BME280;2397;53.576;9.746;2023-02-27T07:49:06;103028.97;;;-3.20;100.00
4767;BME280;2397;53.576;9.746;2023-02-27T07:51:33;103018.72;;;-3.12;100.00
4767;BME280;2397;53.576;9.746;2023-02-27T07:53:59;103022.06;;;-3.05;100.00
4767;BME280;2397;53.576;9.746;2023-02-27T07:56:26;103026.28;;;-2.96;100.00
4767;BME280;2397;53.576;9.746;2023-02-27T07:58:53;103032.91;;;-2.90;100.00
4767;BME280;2397;53.576;9.746;2023-02-27T08:01:19;103033.56;;;-2.84;100.00
4767;BME280;2397;53.576;9.746;2023-02-27T08:03:45;103034.50;;;-2.74;100.00
4767;BME280;2397;53.576;9.746;2023-02-27T08:06:12;103032.03;;;-2.66;100.00
4767;BME280;2397;53.576;9.746;2023-02-27T08:08:39;103023.59;;;-2.57;100.00
4767;BME280;2397;53.576;9.746;2023-02-27T08:11:05;103030.81;;;-2.44;100.00
4767;BME280;2397;53.576;9.746;2023-02-27T08:13:31;103030.47;;;-1.89;100.00
4767;BME280;2397;53.576;9.746;2023-02-27T08:16:18;103020.72;;;-0.90;100.00
4767;BME280;2397;53.576;9.746;2023-02-27T08:18:44;103025.69;;;-0.38;100.00
4767;BME280;2397;53.576;9.746;2023-02-27T08:21:11;103022.06;;;-0.22;100.00
4767;BME280;2397;53.576;9.746;2023-02-27T08:23:37;103024.47;;;-0.24;100.00
4767;BME280;2397;53.576;9.746;2023-02-27T08:26:04;103015.66;;;-0.36;100.00
4767;BME280;2397;53.576;9.746;2023-02-27T08:28:30;103017.34;;;-0.45;100.00
4767;BME280;2397;53.576;9.746;2023-02-27T08:30:56;103015.09;;;-0.42;100.00
4767;BME280;2397;53.576;9.746;2023-02-27T08:33:23;103009.69;;;-0.37;100.00
4767;BME280;2397;53.576;9.746;2023-02-27T08:35:50;103011.75;;;-0.24;100.00
4767;BME280;2397;53.576;9.746;2023-02-27T08:38:17;103015.28;;;-0.13;100.00
4767;BME280;2397;53.576;9.746;2023-02-27T08:40:43;103009.97;;;0.03;100.00
4767;BME280;2397;53.576;9.746;2023-02-27T08:43:10;103014.47;;;0.25;100.00
4767;BME280;2397;53.576;9.746;2023-02-27T08:45:36;103010.75;;;0.49;100.00
4767;BME280;2397;53.576;9.746;2023-02-27T08:48:03;103006.56;;;0.68;100.00
4767;BME280;2397;53.576;9.746;2023-02-27T08:50:29;103014.22;;;0.87;100.00
4767;BME280;2397;53.576;9.746;2023-02-27T08:52:55;103016.16;;;1.00;100.00
4767;BME280;2397;53.576;9.746;2023-02-27T08:55:22;103024.59;;;1.29;100.00
4767;BME280;2397;53.576;9.746;2023-02-27T08:57:48;103034.63;;;1.46;100.00
4767;BME280;2397;53.576;9.746;2023-02-27T09:00:15;103032.25;;;1.58;100.00
4767;BME280;2397;53.576;9.746;2023-02-27T09:02:41;103038.69;;;1.63;100.00
4767;BME280;2397;53.576;9.746;2023-02-27T09:05:08;103037.81;;;1.83;100.00
4767;BME280;2397;53.576;9.746;2023-02-27T09:07:34;103042.38;;;2.06;100.00
4767;BME280;2397;53.576;9.746;2023-02-27T09:10:01;103033.16;;;2.19;100.00
4767;BME280;2397;53.576;9.746;2023-02-27T09:12:27;103039.34;;;2.31;100.00
4767;BME280;2397;53.576;9.746;2023-02-27T09:14:54;103032.94;;;2.46;100.00
4767;BME280;2397;53.576;9.746;2023-02-27T09:17:20;103036.50;;;2.49;100.00
4767;BME280;2397;53.576;9.746;2023-02-27T09:19:46;103035.63;;;2.48;100.00
4767;BME280;2397;53.576;9.746;2023-02-27T09:22:13;103046.59;;;2.47;100.00
4767;BME280;2397;53.576;9.746;2023-02-27T09:24:39;103044.72;;;2.44;100.00
4767;BME280;2397;53.576;9.746;2023-02-27T09:27:05;103044.31;;;2.30;100.00
4767;BME280;2397;53.576;9.746;2023-02-27T09:29:32;103037.53;;;2.30;100.00
4767;BME280;2397;53.576;9.746;2023-02-27T09:31:58;103047.25;;;2.44;100.00
4767;BME280;2397;53.576;9.746;2023-02-27T09:34:25;103055.44;;;2.40;100.00
4767;BME280;2397;53.576;9.746;2023-02-27T09:36:51;103056.69;;;2.35;100.00
4767;BME280;2397;53.576;9.746;2023-02-27T09:39:18;103057.72;;;2.27;100.00
4767;BME280;2397;53.576;9.746;2023-02-27T09:41:55;103053.50;;;2.27;100.00
4767;BME280;2397;53.576;9.746;2023-02-27T09:44:34;103053.13;;;2.23;100.00
4767;BME280;2397;53.576;9.746;2023-02-27T09:47:17;103058.34;;;2.14;100.00
4767;BME280;2397;53.576;9.746;2023-02-27T09:52:27;103049.28;;;2.07;100.00
4767;BME280;2397;53.576;9.746;2023-02-27T09:54:54;103050.53;;;2.02;100.00
4767;BME280;2397;53.576;9.746;2023-02-27T09:57:30;103041.84;;;2.00;100.00
4767;BME280;2397;53.576;9.746;2023-02-27T10:06:22;103037.53;;;2.30;100.00
4767;BME280;2397;53.576;9.746;2023-02-27T10:09:12;103034.22;;;2.31;100.00
4767;BME280;2397;53.576;9.746;2023-02-27T10:17:03;103032.66;;;2.74;100.00
4767;BME280;2397;53.576;9.746;2023-02-27T10:19:34;103037.38;;;2.90;100.00
4767;BME280;2397;53.576;9.746;2023-02-27T10:22:05;103030.69;;;3.03;100.00
4767;BME280;2397;53.576;9.746;2023-02-27T10:24:40;103038.09;;;3.10;100.00
4767;BME280;2397;53.576;9.746;2023-02-27T10:27:14;103037.91;;;3.29;100.00
4767;BME280;2397;53.576;9.746;2023-02-27T10:29:41;103038.88;;;3.41;100.00
4767;BME280;2397;53.576;9.746;2023-02-27T10:32:30;103049.34;;;3.55;100.00
4767;BME280;2397;53.576;9.746;2023-02-27T10:35:07;103046.38;;;3.60;100.00
4767;BME280;2397;53.576;9.746;2023-02-27T10:37:36;103047.84;;;3.68;100.00
4767;BME280;2397;53.576;9.746;2023-02-27T10:40:06;103049.47;;;3.78;100.00
4767;BME280;2397;53.576;9.746;2023-02-27T10:42:38;103046.84;;;3.89;100.00
4767;BME280;2397;53.576;9.746;2023-02-27T10:45:12;103047.44;;;3.96;100.00
4767;BME280;2397;53.576;9.746;2023-02-27T10:47:41;103046.50;;;4.06;100.00
4767;BME280;2397;53.576;9.746;2023-02-27T10:52:57;103052.09;;;4.12;100.00
4767;BME280;2397;53.576;9.746;2023-02-27T10:55:28;103059.91;;;4.14;100.00
4767;BME280;2397;53.576;9.746;2023-02-27T10:57:56;103055.88;;;4.17;100.00
4767;BME280;2397;53.576;9.746;2023-02-27T11:03:19;103069.19;;;4.46;100.00
4767;BME280;2397;53.576;9.746;2023-02-27T11:06:23;103056.84;;;4.64;100.00
4767;BME280;2397;53.576;9.746;2023-02-27T11:11:36;103063.75;;;4.77;100.00
4767;BME280;2397;53.576;9.746;2023-02-27T11:16:49;103060.31;;;4.76;100.00
4767;BME280;2397;53.576;9.746;2023-02-27T11:19:30;103050.91;;;4.65;100.00
4767;BME280;2397;53.576;9.746;2023-02-27T11:24:33;103064.34;;;4.38;100.00
4767;BME280;2397;53.576;9.746;2023-02-27T11:27:03;103056.34;;;4.46;100.00
4767;BME280;2397;53.576;9.746;2023-02-27T11:29:32;103060.91;;;4.50;100.00
4767;BME280;2397;53.576;9.746;2023-02-27T11:32:02;103060.78;;;4.48;100.00
4767;BME280;2397;53.576;9.746;2023-02-27T11:34:34;103062.59;;;4.49;100.00
4767;BME280;2397;53.576;9.746;2023-02-27T11:37:22;103067.28;;;4.55;100.00
4767;BME280;2397;53.576;9.746;2023-02-27T11:39:58;103071.69;;;4.68;100.00
4767;BME280;2397;53.576;9.746;2023-02-27T11:42:31;103069.47;;;4.84;100.00
4767;BME280;2397;53.576;9.746;2023-02-27T11:45:05;103057.22;;;4.92;100.00
4767;BME280;2397;53.576;9.746;2023-02-27T11:47:36;103062.25;;;5.14;100.00
4767;BME280;2397;53.576;9.746;2023-02-27T11:50:38;103057.22;;;5.27;100.00
4767;BME280;2397;53.576;9.746;2023-02-27T11:53:24;103057.44;;;5.31;100.00
4767;BME280;2397;53.576;9.746;2023-02-27T11:55:54;103056.78;;;5.33;100.00
4767;BME280;2397;53.576;9.746;2023-02-27T11:58:27;103056.66;;;5.32;100.00
4767;BME280;2397;53.576;9.746;2023-02-27T12:01:00;103054.44;;;5.36;100.00
4767;BME280;2397;53.576;9.746;2023-02-27T12:03:42;103057.75;;;5.35;100.00
4767;BME280;2397;53.576;9.746;2023-02-27T12:06:16;103049.28;;;5.36;100.00
4767;BME280;2397;53.576;9.746;2023-02-27T12:08:49;103045.56;;;5.44;100.00
4767;BME280;2397;53.576;9.746;2023-02-27T12:11:37;103044.59;;;5.42;100.00
4767;BME280;2397;53.576;9.746;2023-02-27T12:14:34;103039.69;;;5.34;100.00
4767;BME280;2397;53.576;9.746;2023-02-27T12:17:25;103041.13;;;5.42;100.00
4767;BME280;2397;53.576;9.746;2023-02-27T12:22:42;103038.78;;;5.45;100.00
4767;BME280;2397;53.576;9.746;2023-02-27T12:25:29;103041.91;;;5.41;100.00
4767;BME280;2397;53.576;9.746;2023-02-27T12:30:49;103038.78;;;5.33;100.00
4767;BME280;2397;53.576;9.746;2023-02-27T12:33:35;103041.69;;;5.38;100.00
4767;BME280;2397;53.576;9.746;2023-02-27T12:36:03;103032.59;;;5.55;100.00
4767;BME280;2397;53.576;9.746;2023-02-27T12:38:33;103029.59;;;5.60;100.00
4767;BME280;2397;53.576;9.746;2023-02-27T12:41:14;103036.31;;;5.58;100.00
4767;BME280;2397;53.576;9.746;2023-02-27T12:44:06;103029.25;;;5.56;100.00
4767;BME280;2397;53.576;9.746;2023-02-27T12:49:47;103025.53;;;5.76;100.00
4767;BME280;2397;53.576;9.746;2023-02-27T12:52:31;103024.44;;;6.48;100.00
4767;BME280;2397;53.576;9.746;2023-02-27T12:55:11;103018.75;;;6.92;96.48
4767;BME280;2397;53.576;9.746;2023-02-27T12:57:57;103023.25;;;7.63;90.45
4767;BME280;2397;53.576;9.746;2023-02-27T13:00:38;103009.59;;;8.07;77.61
4767;BME280;2397;53.576;9.746;2023-02-27T13:03:15;103012.22;;;8.37;66.88
4767;BME280;2397;53.576;9.746;2023-02-27T13:05:47;103015.66;;;8.66;61.23
4767;BME280;2397;53.576;9.746;2023-02-27T13:08:32;103006.56;;;8.73;57.68
4767;BME280;2397;53.576;9.746;2023-02-27T13:13:46;103005.44;;;9.62;54.46
4767;BME280;2397;53.576;9.746;2023-02-27T13:16:18;103003.53;;;9.74;52.78
4767;BME280;2397;53.576;9.746;2023-02-27T13:19:10;103004.56;;;9.94;52.42
4767;BME280;2397;53.576;9.746;2023-02-27T13:21:51;103004.16;;;10.19;47.84
4767;BME280;2397;53.576;9.746;2023-02-27T13:24:28;102992.03;;;10.35;47.49
4767;BME280;2397;53.576;9.746;2023-02-27T13:29:40;103003.09;;;10.67;44.24
4767;BME280;2397;53.576;9.746;2023-02-27T13:35:20;103006.22;;;8.82;47.20
4767;BME280;2397;53.576;9.746;2023-02-27T13:37:59;103007.63;;;8.47;45.69
4767;BME280;2397;53.576;9.746;2023-02-27T13:40:34;103006.34;;;8.25;47.10
4767;BME280;2397;53.576;9.746;2023-02-27T13:48:45;103003.19;;;8.44;49.41
4767;BME280;2397;53.576;9.746;2023-02-27T13:56:41;102992.59;;;9.47;51.59
4767;BME280;2397;53.576;9.746;2023-02-27T14:01:52;102987.91;;;10.06;48.38
4767;BME280;2397;53.576;9.746;2023-02-27T14:04:20;102982.31;;;10.14;48.19
4767;BME280;2397;53.576;9.746;2023-02-27T14:06:47;102983.66;;;10.41;49.69
4767;BME280;2397;53.576;9.746;2023-02-27T14:09:17;102989.59;;;10.38;48.79
4767;BME280;2397;53.576;9.746;2023-02-27T14:11:57;102987.66;;;10.34;48.02
4767;BME280;2397;53.576;9.746;2023-02-27T14:14:44;103002.03;;;10.29;46.75
4767;BME280;2397;53.576;9.746;2023-02-27T14:17:13;102997.03;;;10.32;47.35
4767;BME280;2397;53.576;9.746;2023-02-27T14:19:59;103011.06;;;10.02;47.95
4767;BME280;2397;53.576;9.746;2023-02-27T14:22:27;103009.50;;;9.73;49.48
4767;BME280;2397;53.576;9.746;2023-02-27T14:24:58;103005.41;;;9.29;49.77
4767;BME280;2397;53.576;9.746;2023-02-27T14:27:31;103006.66;;;8.74;49.84
4767;BME280;2397;53.576;9.746;2023-02-27T14:30:03;103014.19;;;8.41;52.51
4767;BME280;2397;53.576;9.746;2023-02-27T14:32:34;103023.22;;;8.48;56.39
4767;BME280;2397;53.576;9.746;2023-02-27T14:35:04;103021.59;;;8.35;54.67
4767;BME280;2397;53.576;9.746;2023-02-27T14:37:31;103026.63;;;8.19;56.48
4767;BME280;2397;53.576;9.746;2023-02-27T14:39:59;103028.41;;;7.91;57.02
4767;BME280;2397;53.576;9.746;2023-02-27T14:45:19;103028.06;;;7.44;57.04
4767;BME280;2397;53.576;9.746;2023-02-27T14:47:50;103040.56;;;7.37;56.99
4767;BME280;2397;53.576;9.746;2023-02-27T14:50:30;103038.97;;;7.13;59.93
4767;BME280;2397;53.576;9.746;2023-02-27T14:53:04;103039.56;;;7.09;59.72
4767;BME280;2397;53.576;9.746;2023-02-27T14:55:32;103039.47;;;7.07;59.46
4767;BME280;2397;53.576;9.746;2023-02-27T14:58:13;103031.34;;;7.01;61.29
4767;BME280;2397;53.576;9.746;2023-02-27T15:00:43;103034.41;;;6.95;60.59
4767;BME280;2397;53.576;9.746;2023-02-27T15:03:24;103035.41;;;6.84;60.01
4767;BME280;2397;53.576;9.746;2023-02-27T15:05:54;103036.00;;;6.80;57.76
4767;BME280;2397;53.576;9.746;2023-02-27T15:08:26;103038.81;;;6.58;59.27
4767;BME280;2397;53.576;9.746;2023-02-27T15:10:54;103052.06;;;6.50;60.91
4767;BME280;2397;53.576;9.746;2023-02-27T15:13:31;103045.31;;;6.53;61.26